sensor_id;sensor_type;location;lat;lon;timestamp;P1;durP1;ratioP1;P2;durP2;ratioP2
41141;SDS011;63666;52.284;20.890;2023-04-01T00:01:53;7.50;;;5.20;;
41141;SDS011;63666;52.284;20.890;2023-04-01T00:04:27;7.00;;;4.80;;
41141;SDS011;63666;52.284;20.890;2023-04-01T00:07:03;7.20;;;4.80;;
41141;SDS011;63666;52.284;20.890;2023-04-01T00:09:40;6.60;;;5.00;;
41141;SDS011;63666;52.284;20.890;2023-04-01T00:12:15;6.70;;;4.80;;
41141;SDS011;63666;52.284;20.890;2023-04-01T00:14:51;6.20;;;4.80;;
41141;SDS011;63666;52.284;20.890;2023-04-01T00:17:27;6.20;;;4.60;;
41141;SDS011;63666;52.284;20.890;2023-04-01T00:20:01;5.90;;;4.50;;
41141;SDS011;63666;52.284;20.890;2023-04-01T00:22:37;6.10;;;4.50;;
41141;SDS011;63666;52.284;20.890;2023-04-01T00:25:13;6.60;;;4.70;;
41141;SDS011;63666;52.284;20.890;2023-04-01T00:27:48;7.20;;;4.50;;
41141;SDS011;63666;52.284;20.890;2023-04-01T00:30:26;6.20;;;4.50;;
41141;SDS011;63666;52.284;20.890;2023-04-01T00:33:01;6.40;;;5.00;;
41141;SDS011;63666;52.284;20.890;2023-04-01T00:35:40;6.90;;;4.70;;
41141;SDS011;63666;52.284;20.890;2023-04-01T00:38:15;6.90;;;4.70;;
41141;SDS011;63666;52.284;20.890;2023-04-01T00:40:49;6.60;;;4.40;;
41141;SDS011;63666;52.284;20.890;2023-04-01T00:43:25;7.00;;;4.80;;
41141;SDS011;63666;52.284;20.890;2023-04-01T00:46:03;6.90;;;4.80;;
41141;SDS011;63666;52.284;20.890;2023-04-01T00:48:44;6.40;;;4.80;;
41141;SDS011;63666;52.284;20.890;2023-04-01T00:51:27;6.80;;;5.00;;
41141;SDS011;63666;52.284;20.890;2023-04-01T00:54:05;6.70;;;4.70;;
41141;SDS011;63666;52.284;20.890;2023-04-01T00:56:43;6.90;;;5.10;;
41141;SDS011;63666;52.284;20.890;2023-04-01T00:59:24;6.10;;;4.50;;
41141;SDS011;63666;52.284;20.890;2023-04-01T01:02:04;6.90;;;4.90;;
41141;SDS011;63666;52.284;20.890;2023-04-01T01:04:40;6.20;;;4.50;;
41141;SDS011;63666;52.284;20.890;2023-04-01T01:07:27;6.80;;;4.70;;
41141;SDS011;63666;52.284;20.890;2023-04-01T01:10:13;6.10;;;4.40;;
41141;SDS011;63666;52.284;20.890;2023-04-01T01:12:56;6.40;;;4.70;;
41141;SDS011;63666;52.284;20.890;2023-04-01T01:15:40;6.00;;;4.40;;
41141;SDS011;63666;52.284;20.890;2023-04-01T01:18:22;6.30;;;4.70;;
41141;SDS011;63666;52.284;20.890;2023-04-01T01:24:57;6.30;;;4.40;;
41141;SDS011;63666;52.284;20.890;2023-04-01T01:27:56;6.20;;;4.60;;
41141;SDS011;63666;52.284;20.890;2023-04-01T01:30:44;6.20;;;4.50;;
41141;SDS011;63666;52.284;20.890;2023-04-01T01:33:41;6.10;;;4.60;;
41141;SDS011;63666;52.284;20.890;2023-04-01T01:36:20;5.90;;;4.70;;
41141;SDS011;63666;52.284;20.890;2023-04-01T01:38:55;6.30;;;4.40;;
41141;SDS011;63666;52.284;20.890;2023-04-01T01:41:31;6.30;;;4.70;;
41141;SDS011;63666;52.284;20.890;2023-04-01T01:44:09;7.30;;;4.90;;
41141;SDS011;63666;52.284;20.890;2023-04-01T01:46:49;6.50;;;4.50;;
41141;SDS011;63666;52.284;20.890;2023-04-01T01:49:26;6.60;;;4.80;;
41141;SDS011;63666;52.284;20.890;2023-04-01T01:52:02;7.20;;;5.00;;
41141;SDS011;63666;52.284;20.890;2023-04-01T01:54:48;6.80;;;4.50;;
41141;SDS011;63666;52.284;20.890;2023-04-01T01:57:27;6.30;;;4.60;;
41141;SDS011;63666;52.284;20.890;2023-04-01T02:00:08;6.30;;;4.60;;
41141;SDS011;63666;52.284;20.890;2023-04-01T02:02:50;6.90;;;4.80;;
41141;SDS011;63666;52.284;20.890;2023-04-01T02:05:30;6.50;;;4.70;;
41141;SDS011;63666;52.284;20.890;2023-04-01T02:08:07;6.10;;;4.50;;
41141;SDS011;63666;52.284;20.890;2023-04-01T02:10:48;6.50;;;4.90;;
41141;SDS011;63666;52.284;20.890;2023-04-01T02:13:31;6.20;;;4.50;;
41141;SDS011;63666;52.284;20.890;2023-04-01T02:16:13;6.60;;;4.60;;
41141;SDS011;63666;52.284;20.890;2023-04-01T02:18:53;6.40;;;4.70;;
41141;SDS011;63666;52.284;20.890;2023-04-01T02:21:32;6.60;;;4.70;;
41141;SDS011;63666;52.284;20.890;2023-04-01T02:24:12;6.10;;;4.40;;
41141;SDS011;63666;52.284;20.890;2023-04-01T02:26:48;6.40;;;4.40;;
41141;SDS011;63666;52.284;20.890;2023-04-01T02:29:27;6.50;;;4.50;;
41141;SDS011;63666;52.284;20.890;2023-04-01T02:32:03;6.40;;;4.80;;
41141;SDS011;63666;52.284;20.890;2023-04-01T02:34:40;6.50;;;4.70;;
41141;SDS011;63666;52.284;20.890;2023-04-01T02:37:15;6.30;;;4.70;;
41141;SDS011;63666;52.284;20.890;2023-04-01T02:39:49;6.20;;;4.50;;
41141;SDS011;63666;52.284;20.890;2023-04-01T02:42:25;6.20;;;4.40;;
41141;SDS011;63666;52.284;20.890;2023-04-01T02:45:01;6.10;;;4.60;;
41141;SDS011;63666;52.284;20.890;2023-04-01T02:47:41;6.20;;;4.90;;
41141;SDS011;63666;52.284;20.890;2023-04-01T02:50:16;6.00;;;4.40;;
41141;SDS011;63666;52.284;20.890;2023-04-01T02:52:52;6.40;;;4.60;;
41141;SDS011;63666;52.284;20.890;2023-04-01T02:55:29;5.90;;;4.30;;
41141;SDS011;63666;52.284;20.890;2023-04-01T02:58:07;6.50;;;4.80;;
41141;SDS011;63666;52.284;20.890;2023-04-01T03:00:43;6.20;;;4.50;;
41141;SDS011;63666;52.284;20.890;2023-04-01T03:03:21;6.30;;;4.80;;
41141;SDS011;63666;52.284;20.890;2023-04-01T03:05:56;6.60;;;4.70;;
41141;SDS011;63666;52.284;20.890;2023-04-01T03:08:32;7.60;;;4.80;;
41141;SDS011;63666;52.284;20.890;2023-04-01T03:11:06;6.30;;;4.70;;
41141;SDS011;63666;52.284;20.890;2023-04-01T03:13:43;6.10;;;4.60;;
41141;SDS011;63666;52.284;20.890;2023-04-01T03:16:18;6.40;;;4.90;;
41141;SDS011;63666;52.284;20.890;2023-04-01T03:18:53;6.80;;;4.70;;
41141;SDS011;63666;52.284;20.890;2023-04-01T03:21:29;6.50;;;4.90;;
41141;SDS011;63666;52.284;20.890;2023-04-01T03:24:04;7.70;;;5.00;;
41141;SDS011;63666;52.284;20.890;2023-04-01T03:26:40;6.90;;;5.10;;
41141;SDS011;63666;52.284;20.890;2023-04-01T03:29:13;6.60;;;4.90;;
41141;SDS011;63666;52.284;20.890;2023-04-01T03:31:51;7.10;;;5.00;;
41141;SDS011;63666;52.284;20.890;2023-04-01T03:34:25;7.00;;;4.90;;
41141;SDS011;63666;52.284;20.890;2023-04-01T03:36:59;6.90;;;4.60;;
41141;SDS011;63666;52.284;20.890;2023-04-01T03:39:33;7.50;;;5.00;;
41141;SDS011;63666;52.284;20.890;2023-04-01T03:42:07;6.90;;;5.40;;
41141;SDS011;63666;52.284;20.890;2023-04-01T03:44:43;6.70;;;5.00;;
41141;SDS011;63666;52.284;20.890;2023-04-01T03:47:19;6.60;;;5.10;;
41141;SDS011;63666;52.284;20.890;2023-04-01T03:49:54;6.80;;;5.00;;
41141;SDS011;63666;52.284;20.890;2023-04-01T03:52:30;6.90;;;5.20;;
41141;SDS011;63666;52.284;20.890;2023-04-01T03:55:05;7.60;;;5.40;;
41141;SDS011;63666;52.284;20.890;2023-04-01T03:57:41;6.50;;;4.90;;
41141;SDS011;63666;52.284;20.890;2023-04-01T04:00:16;6.80;;;5.20;;
41141;SDS011;63666;52.284;20.890;2023-04-01T04:02:50;7.70;;;5.30;;
41141;SDS011;63666;52.284;20.890;2023-04-01T04:05:26;7.20;;;5.10;;
41141;SDS011;63666;52.284;20.890;2023-04-01T04:08:00;6.70;;;5.30;;
41141;SDS011;63666;52.284;20.890;2023-04-01T04:10:35;7.40;;;5.10;;
41141;SDS011;63666;52.284;20.890;2023-04-01T04:13:10;6.70;;;5.10;;
41141;SDS011;63666;52.284;20.890;2023-04-01T04:15:44;7.30;;;5.10;;
41141;SDS011;63666;52.284;20.890;2023-04-01T04:18:21;6.70;;;5.10;;
41141;SDS011;63666;52.284;20.890;2023-04-01T04:20:55;6.40;;;4.90;;
41141;SDS011;63666;52.284;20.890;2023-04-01T04:23:31;6.40;;;4.90;;
41141;SDS011;63666;52.284;20.890;2023-04-01T04:26:07;7.20;;;5.00;;
41141;SDS011;63666;52.284;20.890;2023-04-01T04:28:43;6.60;;;4.80;;
41141;SDS011;63666;52.284;20.890;2023-04-01T04:31:23;6.60;;;5.00;;
41141;SDS011;63666;52.284;20.890;2023-04-01T04:34:01;6.70;;;4.80;;
41141;SDS011;63666;52.284;20.890;2023-04-01T04:36:35;6.70;;;5.20;;
41141;SDS011;63666;52.284;20.890;2023-04-01T04:39:11;6.70;;;4.80;;
41141;SDS011;63666;52.284;20.890;2023-04-01T04:41:47;7.10;;;5.00;;
41141;SDS011;63666;52.284;20.890;2023-04-01T04:44:28;6.20;;;4.70;;
41141;SDS011;63666;52.284;20.890;2023-04-01T04:47:03;6.60;;;4.50;;
41141;SDS011;63666;52.284;20.890;2023-04-01T04:49:38;6.00;;;4.70;;
41141;SDS011;63666;52.284;20.890;2023-04-01T04:52:13;6.00;;;4.50;;
41141;SDS011;63666;52.284;20.890;2023-04-01T04:54:49;5.80;;;4.10;;
41141;SDS011;63666;52.284;20.890;2023-04-01T04:57:26;6.50;;;4.20;;
41141;SDS011;63666;52.284;20.890;2023-04-01T05:00:01;6.20;;;4.40;;
41141;SDS011;63666;52.284;20.890;2023-04-01T05:02:36;6.00;;;4.50;;
41141;SDS011;63666;52.284;20.890;2023-04-01T05:05:14;5.60;;;4.20;;
41141;SDS011;63666;52.284;20.890;2023-04-01T05:07:50;6.30;;;4.50;;
41141;SDS011;63666;52.284;20.890;2023-04-01T05:10:26;6.00;;;4.20;;
41141;SDS011;63666;52.284;20.890;2023-04-01T05:13:01;6.30;;;4.30;;
41141;SDS011;63666;52.284;20.890;2023-04-01T05:15:39;6.10;;;4.20;;
41141;SDS011;63666;52.284;20.890;2023-04-01T05:18:13;6.40;;;4.30;;
41141;SDS011;63666;52.284;20.890;2023-04-01T05:20:51;6.30;;;4.50;;
41141;SDS011;63666;52.284;20.890;2023-04-01T05:23:27;6.10;;;4.00;;
41141;SDS011;63666;52.284;20.890;2023-04-01T05:26:06;6.40;;;4.20;;
41141;SDS011;63666;52.284;20.890;2023-04-01T05:28:43;5.90;;;4.00;;
41141;SDS011;63666;52.284;20.890;2023-04-01T05:31:17;5.50;;;4.10;;
41141;SDS011;63666;52.284;20.890;2023-04-01T05:33:51;5.90;;;4.10;;
41141;SDS011;63666;52.284;20.890;2023-04-01T05:36:27;5.70;;;4.10;;
41141;SDS011;63666;52.284;20.890;2023-04-01T05:39:02;5.70;;;4.00;;
41141;SDS011;63666;52.284;20.890;2023-04-01T05:41:37;5.80;;;3.90;;
41141;SDS011;63666;52.284;20.890;2023-04-01T05:44:15;5.40;;;3.80;;
41141;SDS011;63666;52.284;20.890;2023-04-01T05:46:51;5.30;;;3.70;;
41141;SDS011;63666;52.284;20.890;2023-04-01T05:49:28;6.30;;;3.90;;
41141;SDS011;63666;52.284;20.890;2023-04-01T05:52:02;5.50;;;3.70;;
41141;SDS011;63666;52.284;20.890;2023-04-01T05:54:38;5.30;;;3.60;;
41141;SDS011;63666;52.284;20.890;2023-04-01T05:57:15;5.70;;;3.90;;
41141;SDS011;63666;52.284;20.890;2023-04-01T05:59:49;5.70;;;3.90;;
41141;SDS011;63666;52.284;20.890;2023-04-01T06:02:27;5.10;;;3.60;;
41141;SDS011;63666;52.284;20.890;2023-04-01T06:05:12;5.60;;;3.90;;
41141;SDS011;63666;52.284;20.890;2023-04-01T06:07:49;5.40;;;3.80;;
41141;SDS011;63666;52.284;20.890;2023-04-01T06:10:35;5.20;;;3.50;;
41141;SDS011;63666;52.284;20.890;2023-04-01T06:13:20;5.20;;;3.40;;
41141;SDS011;63666;52.284;20.890;2023-04-01T06:16:07;5.30;;;3.50;;
41141;SDS011;63666;52.284;20.890;2023-04-01T06:19:02;5.10;;;3.40;;
41141;SDS011;63666;52.284;20.890;2023-04-01T06:25:16;7.30;;;4.10;;
41141;SDS011;63666;52.284;20.890;2023-04-01T06:31:13;6.40;;;3.90;;
41141;SDS011;63666;52.284;20.890;2023-04-01T06:34:12;7.80;;;4.50;;
41141;SDS011;63666;52.284;20.890;2023-04-01T06:37:19;6.80;;;4.40;;
41141;SDS011;63666;52.284;20.890;2023-04-01T06:43:27;7.40;;;4.30;;
41141;SDS011;63666;52.284;20.890;2023-04-01T06:46:14;7.80;;;4.50;;
41141;SDS011;63666;52.284;20.890;2023-04-01T06:49:11;7.50;;;4.50;;
41141;SDS011;63666;52.284;20.890;2023-04-01T06:52:05;7.50;;;4.80;;
41141;SDS011;63666;52.284;20.890;2023-04-01T06:54:52;8.30;;;4.30;;
41141;SDS011;63666;52.284;20.890;2023-04-01T06:57:32;8.00;;;4.10;;
41141;SDS011;63666;52.284;20.890;2023-04-01T07:00:18;6.80;;;3.90;;
41141;SDS011;63666;52.284;20.890;2023-04-01T07:03:04;7.70;;;4.30;;
41141;SDS011;63666;52.284;20.890;2023-04-01T07:05:43;7.30;;;4.20;;
41141;SDS011;63666;52.284;20.890;2023-04-01T07:08:20;7.40;;;4.00;;
41141;SDS011;63666;52.284;20.890;2023-04-01T07:10:58;7.30;;;4.10;;
41141;SDS011;63666;52.284;20.890;2023-04-01T07:13:41;7.20;;;3.70;;
41141;SDS011;63666;52.284;20.890;2023-04-01T07:16:21;7.70;;;3.90;;
41141;SDS011;63666;52.284;20.890;2023-04-01T07:19:04;6.60;;;3.60;;
41141;SDS011;63666;52.284;20.890;2023-04-01T07:21:44;6.90;;;3.80;;
41141;SDS011;63666;52.284;20.890;2023-04-01T07:24:24;7.40;;;3.70;;
41141;SDS011;63666;52.284;20.890;2023-04-01T07:27:02;7.10;;;3.30;;
41141;SDS011;63666;52.284;20.890;2023-04-01T07:29:42;6.00;;;3.40;;
41141;SDS011;63666;52.284;20.890;2023-04-01T07:32:32;5.60;;;3.40;;
41141;SDS011;63666;52.284;20.890;2023-04-01T07:35:25;6.30;;;3.20;;
41141;SDS011;63666;52.284;20.890;2023-04-01T07:38:17;6.00;;;3.60;;
41141;SDS011;63666;52.284;20.890;2023-04-01T07:41:08;8.00;;;3.20;;
41141;SDS011;63666;52.284;20.890;2023-04-01T07:43:59;6.20;;;3.20;;
41141;SDS011;63666;52.284;20.890;2023-04-01T07:46:56;6.10;;;3.50;;
41141;SDS011;63666;52.284;20.890;2023-04-01T07:49:47;5.60;;;3.00;;
41141;SDS011;63666;52.284;20.890;2023-04-01T07:52:35;5.80;;;3.30;;
41141;SDS011;63666;52.284;20.890;2023-04-01T07:55:22;6.10;;;3.20;;
41141;SDS011;63666;52.284;20.890;2023-04-01T07:58:12;6.80;;;3.40;;
41141;SDS011;63666;52.284;20.890;2023-04-01T08:00:57;6.10;;;3.40;;
41141;SDS011;63666;52.284;20.890;2023-04-01T08:03:47;6.20;;;3.20;;
41141;SDS011;63666;52.284;20.890;2023-04-01T08:06:39;5.70;;;3.20;;
41141;SDS011;63666;52.284;20.890;2023-04-01T08:09:23;5.70;;;3.30;;
41141;SDS011;63666;52.284;20.890;2023-04-01T08:12:12;6.00;;;3.40;;
41141;SDS011;63666;52.284;20.890;2023-04-01T08:14:55;5.90;;;3.50;;
41141;SDS011;63666;52.284;20.890;2023-04-01T08:17:43;5.80;;;3.50;;
41141;SDS011;63666;52.284;20.890;2023-04-01T08:20:37;5.70;;;3.60;;
41141;SDS011;63666;52.284;20.890;2023-04-01T08:23:18;5.30;;;3.70;;
41141;SDS011;63666;52.284;20.890;2023-04-01T08:26:02;5.70;;;3.70;;
41141;SDS011;63666;52.284;20.890;2023-04-01T08:28:49;5.80;;;3.50;;
41141;SDS011;63666;52.284;20.890;2023-04-01T08:31:38;5.80;;;3.60;;
41141;SDS011;63666;52.284;20.890;2023-04-01T08:34:22;5.50;;;3.30;;
41141;SDS011;63666;52.284;20.890;2023-04-01T08:39:39;5.00;;;3.10;;
41141;SDS011;63666;52.284;20.890;2023-04-01T08:45:44;6.20;;;3.30;;
41141;SDS011;63666;52.284;20.890;2023-04-01T08:48:47;5.00;;;3.30;;
41141;SDS011;63666;52.284;20.890;2023-04-01T08:51:57;5.20;;;3.30;;
41141;SDS011;63666;52.284;20.890;2023-04-01T08:55:19;5.60;;;3.60;;
41141;SDS011;63666;52.284;20.890;2023-04-01T09:01:39;6.30;;;3.30;;
41141;SDS011;63666;52.284;20.890;2023-04-01T09:04:29;5.50;;;3.50;;
41141;SDS011;63666;52.284;20.890;2023-04-01T09:07:25;5.50;;;3.40;;
41141;SDS011;63666;52.284;20.890;2023-04-01T09:13:36;5.60;;;3.60;;
41141;SDS011;63666;52.284;20.890;2023-04-01T09:16:48;6.50;;;3.90;;
41141;SDS011;63666;52.284;20.890;2023-04-01T09:19:48;7.40;;;4.30;;
41141;SDS011;63666;52.284;20.890;2023-04-01T09:22:48;6.70;;;4.20;;
41141;SDS011;63666;52.284;20.890;2023-04-01T09:25:53;5.30;;;3.80;;
41141;SDS011;63666;52.284;20.890;2023-04-01T09:28:45;6.80;;;3.80;;
41141;SDS011;63666;52.284;20.890;2023-04-01T09:31:51;5.20;;;3.40;;
41141;SDS011;63666;52.284;20.890;2023-04-01T09:34:53;5.20;;;3.50;;
41141;SDS011;63666;52.284;20.890;2023-04-01T09:37:53;5.30;;;3.20;;
41141;SDS011;63666;52.284;20.890;2023-04-01T09:40:41;5.30;;;3.50;;
41141;SDS011;63666;52.284;20.890;2023-04-01T09:43:33;5.30;;;3.30;;
41141;SDS011;63666;52.284;20.890;2023-04-01T09:46:29;6.10;;;3.40;;
41141;SDS011;63666;52.284;20.890;2023-04-01T09:49:29;5.00;;;3.10;;
41141;SDS011;63666;52.284;20.890;2023-04-01T09:55:05;4.90;;;3.10;;
41141;SDS011;63666;52.284;20.890;2023-04-01T09:58:13;6.10;;;3.20;;
41141;SDS011;63666;52.284;20.890;2023-04-01T10:01:40;5.40;;;3.40;;
41141;SDS011;63666;52.284;20.890;2023-04-01T10:14:47;5.20;;;3.20;;
41141;SDS011;63666;52.284;20.890;2023-04-01T10:21:12;5.60;;;3.80;;
41141;SDS011;63666;52.284;20.890;2023-04-01T10:24:17;5.50;;;3.50;;
41141;SDS011;63666;52.284;20.890;2023-04-01T10:27:23;5.50;;;3.40;;
41141;SDS011;63666;52.284;20.890;2023-04-01T10:30:18;5.30;;;3.50;;
41141;SDS011;63666;52.284;20.890;2023-04-01T10:36:45;5.40;;;3.80;;
41141;SDS011;63666;52.284;20.890;2023-04-01T10:39:37;6.40;;;4.00;;
41141;SDS011;63666;52.284;20.890;2023-04-01T10:46:04;5.00;;;3.30;;
41141;SDS011;63666;52.284;20.890;2023-04-01T10:49:14;4.90;;;3.30;;
41141;SDS011;63666;52.284;20.890;2023-04-01T10:52:40;5.90;;;3.70;;
41141;SDS011;63666;52.284;20.890;2023-04-01T10:55:38;4.90;;;3.50;;
41141;SDS011;63666;52.284;20.890;2023-04-01T11:08:55;5.30;;;3.70;;
41141;SDS011;63666;52.284;20.890;2023-04-01T11:15:10;5.70;;;3.60;;
41141;SDS011;63666;52.284;20.890;2023-04-01T11:18:23;5.30;;;3.50;;
41141;SDS011;63666;52.284;20.890;2023-04-01T11:24:48;5.30;;;3.40;;
41141;SDS011;63666;52.284;20.890;2023-04-01T11:27:55;4.90;;;3.30;;
41141;SDS011;63666;52.284;20.890;2023-04-01T11:30:52;5.80;;;3.30;;
41141;SDS011;63666;52.284;20.890;2023-04-01T11:33:36;5.30;;;3.40;;
41141;SDS011;63666;52.284;20.890;2023-04-01T11:36:22;5.40;;;3.40;;
41141;SDS011;63666;52.284;20.890;2023-04-01T11:39:14;5.50;;;3.50;;
41141;SDS011;63666;52.284;20.890;2023-04-01T11:42:01;4.70;;;3.20;;
41141;SDS011;63666;52.284;20.890;2023-04-01T11:44:51;5.00;;;3.20;;
41141;SDS011;63666;52.284;20.890;2023-04-01T11:47:47;4.70;;;3.20;;
41141;SDS011;63666;52.284;20.890;2023-04-01T11:50:35;4.90;;;3.10;;
41141;SDS011;63666;52.284;20.890;2023-04-01T11:53:24;4.70;;;3.00;;
41141;SDS011;63666;52.284;20.890;2023-04-01T11:56:12;5.10;;;3.20;;
41141;SDS011;63666;52.284;20.890;2023-04-01T11:59:09;5.60;;;3.30;;
41141;SDS011;63666;52.284;20.890;2023-04-01T12:02:12;5.20;;;3.00;;
41141;SDS011;63666;52.284;20.890;2023-04-01T12:05:03;4.90;;;2.90;;
41141;SDS011;63666;52.284;20.890;2023-04-01T12:08:00;5.30;;;3.10;;
41141;SDS011;63666;52.284;20.890;2023-04-01T12:10:44;5.10;;;3.20;;
41141;SDS011;63666;52.284;20.890;2023-04-01T12:13:29;4.80;;;3.00;;
41141;SDS011;63666;52.284;20.890;2023-04-01T12:16:20;5.10;;;3.00;;
41141;SDS011;63666;52.284;20.890;2023-04-01T12:19:13;4.50;;;2.90;;
41141;SDS011;63666;52.284;20.890;2023-04-01T12:22:00;4.40;;;2.60;;
41141;SDS011;63666;52.284;20.890;2023-04-01T12:24:47;4.50;;;2.50;;
41141;SDS011;63666;52.284;20.890;2023-04-01T12:27:38;4.20;;;2.60;;
41141;SDS011;63666;52.284;20.890;2023-04-01T12:33:47;4.00;;;2.40;;
41141;SDS011;63666;52.284;20.890;2023-04-01T12:36:40;4.30;;;2.50;;
41141;SDS011;63666;52.284;20.890;2023-04-01T12:39:36;4.90;;;2.50;;
41141;SDS011;63666;52.284;20.890;2023-04-01T12:45:41;5.70;;;2.90;;
41141;SDS011;63666;52.284;20.890;2023-04-01T12:51:48;5.20;;;2.50;;
41141;SDS011;63666;52.284;20.890;2023-04-01T12:58:31;5.30;;;2.60;;
41141;SDS011;63666;52.284;20.890;2023-04-01T13:01:50;4.50;;;2.60;;
41141;SDS011;63666;52.284;20.890;2023-04-01T13:05:01;4.50;;;2.40;;
41141;SDS011;63666;52.284;20.890;2023-04-01T13:11:09;4.40;;;2.40;;
41141;SDS011;63666;52.284;20.890;2023-04-01T13:14:23;5.00;;;2.40;;
41141;SDS011;63666;52.284;20.890;2023-04-01T13:17:19;4.70;;;2.40;;
41141;SDS011;63666;52.284;20.890;2023-04-01T13:22:48;5.50;;;2.60;;
41141;SDS011;63666;52.284;20.890;2023-04-01T13:25:36;4.80;;;2.70;;
41141;SDS011;63666;52.284;20.890;2023-04-01T13:28:18;4.70;;;2.40;;
41141;SDS011;63666;52.284;20.890;2023-04-01T13:31:02;4.70;;;2.50;;
41141;SDS011;63666;52.284;20.890;2023-04-01T13:33:45;4.80;;;2.20;;
41141;SDS011;63666;52.284;20.890;2023-04-01T13:36:29;4.60;;;2.30;;
41141;SDS011;63666;52.284;20.890;2023-04-01T13:39:27;5.20;;;2.20;;
41141;SDS011;63666;52.284;20.890;2023-04-01T13:42:19;5.10;;;2.40;;
41141;SDS011;63666;52.284;20.890;2023-04-01T13:44:59;4.20;;;2.20;;
41141;SDS011;63666;52.284;20.890;2023-04-01T13:47:55;4.50;;;2.30;;
41141;SDS011;63666;52.284;20.890;2023-04-01T13:50:43;4.60;;;2.20;;
41141;SDS011;63666;52.284;20.890;2023-04-01T13:56:44;4.30;;;2.30;;
41141;SDS011;63666;52.284;20.890;2023-04-01T13:59:41;5.50;;;2.30;;
41141;SDS011;63666;52.284;20.890;2023-04-01T14:05:59;4.80;;;2.10;;
41141;SDS011;63666;52.284;20.890;2023-04-01T14:08:59;4.50;;;2.10;;
41141;SDS011;63666;52.284;20.890;2023-04-01T14:11:52;4.50;;;2.10;;
41141;SDS011;63666;52.284;20.890;2023-04-01T14:14:43;4.70;;;1.90;;
41141;SDS011;63666;52.284;20.890;2023-04-01T14:17:45;4.20;;;2.00;;
41141;SDS011;63666;52.284;20.890;2023-04-01T14:20:32;4.70;;;1.90;;
41141;SDS011;63666;52.284;20.890;2023-04-01T14:23:28;4.30;;;1.90;;
41141;SDS011;63666;52.284;20.890;2023-04-01T14:26:29;3.80;;;1.90;;
41141;SDS011;63666;52.284;20.890;2023-04-01T14:29:26;3.50;;;1.70;;
41141;SDS011;63666;52.284;20.890;2023-04-01T14:32:12;5.00;;;2.10;;
41141;SDS011;63666;52.284;20.890;2023-04-01T14:35:05;3.80;;;1.70;;
41141;SDS011;63666;52.284;20.890;2023-04-01T14:38:01;4.20;;;2.00;;
41141;SDS011;63666;52.284;20.890;2023-04-01T14:40:53;4.20;;;1.80;;
41141;SDS011;63666;52.284;20.890;2023-04-01T14:43:55;3.70;;;2.00;;
41141;SDS011;63666;52.284;20.890;2023-04-01T14:50:08;3.90;;;1.70;;
41141;SDS011;63666;52.284;20.890;2023-04-01T14:52:59;3.80;;;1.90;;
41141;SDS011;63666;52.284;20.890;2023-04-01T14:55:51;3.70;;;1.90;;
41141;SDS011;63666;52.284;20.890;2023-04-01T14:58:42;3.70;;;1.80;;
41141;SDS011;63666;52.284;20.890;2023-04-01T15:01:30;3.70;;;1.80;;
41141;SDS011;63666;52.284;20.890;2023-04-01T15:04:33;4.30;;;1.80;;
41141;SDS011;63666;52.284;20.890;2023-04-01T15:07:27;3.80;;;1.80;;
41141;SDS011;63666;52.284;20.890;2023-04-01T15:10:28;3.80;;;1.70;;
41141;SDS011;63666;52.284;20.890;2023-04-01T15:13:26;3.50;;;1.90;;
41141;SDS011;63666;52.284;20.890;2023-04-01T15:16:17;4.40;;;1.70;;
41141;SDS011;63666;52.284;20.890;2023-04-01T15:19:03;3.70;;;1.90;;
41141;SDS011;63666;52.284;20.890;2023-04-01T15:22:16;4.20;;;1.80;;
41141;SDS011;63666;52.284;20.890;2023-04-01T15:25:13;3.40;;;1.60;;
41141;SDS011;63666;52.284;20.890;2023-04-01T15:28:01;3.50;;;1.80;;
41141;SDS011;63666;52.284;20.890;2023-04-01T15:30:53;3.80;;;1.90;;
41141;SDS011;63666;52.284;20.890;2023-04-01T15:33:45;4.20;;;2.10;;
41141;SDS011;63666;52.284;20.890;2023-04-01T15:39:12;4.30;;;1.90;;
41141;SDS011;63666;52.284;20.890;2023-04-01T15:42:01;3.90;;;1.70;;
41141;SDS011;63666;52.284;20.890;2023-04-01T15:44:57;4.40;;;1.90;;
41141;SDS011;63666;52.284;20.890;2023-04-01T15:47:44;4.20;;;1.90;;
41141;SDS011;63666;52.284;20.890;2023-04-01T15:50:44;4.20;;;2.00;;
41141;SDS011;63666;52.284;20.890;2023-04-01T15:53:34;5.00;;;1.90;;
41141;SDS011;63666;52.284;20.890;2023-04-01T15:56:28;5.10;;;1.90;;
41141;SDS011;63666;52.284;20.890;2023-04-01T15:59:22;4.30;;;1.80;;
41141;SDS011;63666;52.284;20.890;2023-04-01T16:02:17;4.30;;;1.90;;
41141;SDS011;63666;52.284;20.890;2023-04-01T16:04:59;4.50;;;2.00;;
41141;SDS011;63666;52.284;20.890;2023-04-01T16:07:55;3.90;;;1.90;;
41141;SDS011;63666;52.284;20.890;2023-04-01T16:10:49;6.70;;;2.40;;
41141;SDS011;63666;52.284;20.890;2023-04-01T16:13:42;4.70;;;1.80;;
41141;SDS011;63666;52.284;20.890;2023-04-01T16:16:31;4.30;;;1.90;;
41141;SDS011;63666;52.284;20.890;2023-04-01T16:19:40;4.30;;;1.80;;
41141;SDS011;63666;52.284;20.890;2023-04-01T16:22:30;4.20;;;1.90;;
41141;SDS011;63666;52.284;20.890;2023-04-01T16:25:25;4.80;;;1.90;;
41141;SDS011;63666;52.284;20.890;2023-04-01T16:28:19;4.20;;;1.90;;
41141;SDS011;63666;52.284;20.890;2023-04-01T16:31:04;3.70;;;1.80;;
41141;SDS011;63666;52.284;20.890;2023-04-01T16:33:49;5.20;;;2.00;;
41141;SDS011;63666;52.284;20.890;2023-04-01T16:36:30;3.50;;;1.80;;
41141;SDS011;63666;52.284;20.890;2023-04-01T16:39:26;4.30;;;1.70;;
41141;SDS011;63666;52.284;20.890;2023-04-01T16:42:19;4.60;;;1.70;;
41141;SDS011;63666;52.284;20.890;2023-04-01T16:45:23;4.00;;;1.60;;
41141;SDS011;63666;52.284;20.890;2023-04-01T16:48:10;4.20;;;1.70;;
41141;SDS011;63666;52.284;20.890;2023-04-01T16:50:55;4.80;;;1.70;;
41141;SDS011;63666;52.284;20.890;2023-04-01T16:53:43;4.00;;;1.90;;
41141;SDS011;63666;52.284;20.890;2023-04-01T16:56:25;4.20;;;1.80;;
41141;SDS011;63666;52.284;20.890;2023-04-01T16:59:17;3.60;;;1.70;;
41141;SDS011;63666;52.284;20.890;2023-04-01T17:01:57;3.70;;;1.60;;
41141;SDS011;63666;52.284;20.890;2023-04-01T17:04:45;3.90;;;1.70;;
41141;SDS011;63666;52.284;20.890;2023-04-01T17:07:27;4.30;;;1.70;;
41141;SDS011;63666;52.284;20.890;2023-04-01T17:10:29;3.90;;;1.80;;
41141;SDS011;63666;52.284;20.890;2023-04-01T17:13:33;5.10;;;1.80;;
41141;SDS011;63666;52.284;20.890;2023-04-01T17:16:27;4.10;;;1.70;;
41141;SDS011;63666;52.284;20.890;2023-04-01T17:19:17;3.50;;;1.80;;
41141;SDS011;63666;52.284;20.890;2023-04-01T17:22:19;4.30;;;1.90;;
41141;SDS011;63666;52.284;20.890;2023-04-01T17:25:13;4.00;;;1.70;;
41141;SDS011;63666;52.284;20.890;2023-04-01T17:28:14;3.80;;;1.70;;
41141;SDS011;63666;52.284;20.890;2023-04-01T17:31:04;4.00;;;1.60;;
41141;SDS011;63666;52.284;20.890;2023-04-01T17:34:00;4.40;;;1.80;;
41141;SDS011;63666;52.284;20.890;2023-04-01T17:36:50;4.30;;;2.10;;
41141;SDS011;63666;52.284;20.890;2023-04-01T17:39:46;3.50;;;1.80;;
41141;SDS011;63666;52.284;20.890;2023-04-01T17:42:38;4.20;;;2.00;;
41141;SDS011;63666;52.284;20.890;2023-04-01T17:45:24;4.00;;;1.90;;
41141;SDS011;63666;52.284;20.890;2023-04-01T17:48:17;4.30;;;1.90;;
41141;SDS011;63666;52.284;20.890;2023-04-01T17:51:17;4.20;;;2.00;;
41141;SDS011;63666;52.284;20.890;2023-04-01T17:54:02;3.90;;;1.90;;
41141;SDS011;63666;52.284;20.890;2023-04-01T17:56:52;3.70;;;2.10;;
41141;SDS011;63666;52.284;20.890;2023-04-01T17:59:37;4.00;;;2.00;;
41141;SDS011;63666;52.284;20.890;2023-04-01T18:02:24;3.60;;;2.00;;
41141;SDS011;63666;52.284;20.890;2023-04-01T18:05:22;3.60;;;1.90;;
41141;SDS011;63666;52.284;20.890;2023-04-01T18:08:13;4.00;;;1.90;;